createdAt,value
2022-10-23T00:00:59.807Z,12.90
2022-10-23T00:03:26.348Z,12.80
2022-10-23T00:05:53.973Z,12.80
2022-10-23T00:08:20.646Z,12.70
2022-10-23T00:10:47.364Z,12.70
2022-10-23T00:13:14.963Z,12.70
2022-10-23T00:15:41.723Z,12.70
2022-10-23T00:18:08.409Z,12.70
2022-10-23T00:20:35.090Z,12.60
2022-10-23T00:23:01.633Z,12.60
2022-10-23T00:25:28.222Z,12.60
2022-10-23T00:27:54.695Z,12.50
2022-10-23T00:30:21.296Z,12.50
2022-10-23T00:32:47.844Z,12.50
2022-10-23T00:35:14.479Z,12.50
2022-10-23T00:37:41.442Z,12.50
2022-10-23T00:40:08.685Z,12.50
2022-10-23T00:42:35.376Z,12.40
2022-10-23T00:45:09.875Z,12.40
2022-10-23T00:47:36.487Z,12.40
2022-10-23T00:50:06.367Z,12.40
2022-10-23T00:52:33.726Z,12.30
2022-10-23T00:55:00.357Z,12.40
2022-10-23T00:59:53.755Z,12.30
2022-10-23T01:02:20.402Z,12.30
2022-10-23T01:04:47.192Z,12.30
2022-10-23T01:07:25.161Z,12.30
2022-10-23T01:09:55.899Z,12.30
2022-10-23T01:12:28.385Z,12.30
2022-10-23T01:15:13.550Z,12.30
2022-10-23T01:17:42.478Z,12.30
2022-10-23T01:20:18.867Z,12.30
2022-10-23T01:23:00.780Z,12.30
2022-10-23T01:25:46.104Z,12.30
2022-10-23T01:28:15.146Z,12.30
2022-10-23T01:30:43.769Z,12.20
2022-10-23T01:33:12.887Z,12.20
2022-10-23T01:35:50.482Z,12.20
2022-10-23T01:38:43.570Z,12.20
2022-10-23T01:41:12.898Z,12.10
2022-10-23T01:43:44.250Z,12.10
2022-10-23T01:46:12.552Z,12.10
2022-10-23T01:48:39.369Z,12.10
2022-10-23T01:51:07.627Z,12.10
2022-10-23T01:53:37.661Z,12.10
2022-10-23T01:56:06.212Z,12.10
2022-10-23T01:58:33.847Z,12.00
2022-10-23T02:01:02.993Z,12.10
2022-10-23T02:03:31.172Z,12.10
2022-10-23T02:05:57.907Z,12.10
2022-10-23T02:08:25.667Z,12.10
2022-10-23T02:11:00.712Z,12.00
2022-10-23T02:13:44.139Z,12.10
2022-10-23T02:16:19.159Z,12.00
2022-10-23T02:18:50.735Z,12.10
2022-10-23T02:21:21.279Z,12.00
2022-10-23T02:24:09.407Z,12.00
2022-10-23T02:26:41.630Z,12.00
2022-10-23T02:29:15.053Z,12.00
2022-10-23T02:31:41.850Z,12.00
2022-10-23T02:34:08.543Z,12.00
2022-10-23T02:36:35.320Z,12.00
2022-10-23T02:39:02.002Z,12.00
2022-10-23T02:41:35.979Z,12.00
2022-10-23T02:44:02.633Z,12.00
2022-10-23T02:46:37.738Z,11.90
2022-10-23T02:49:10.351Z,11.90
2022-10-23T02:51:44.191Z,11.90
2022-10-23T02:54:18.531Z,11.90
2022-10-23T02:57:00.151Z,11.90
2022-10-23T02:59:47.614Z,11.90
2022-10-23T03:02:22.926Z,11.90
2022-10-23T03:04:50.485Z,11.90
2022-10-23T03:07:19.175Z,11.80
2022-10-23T03:09:46.045Z,11.80
2022-10-23T03:12:12.730Z,11.80
2022-10-23T03:14:41.830Z,11.80
2022-10-23T03:17:09.187Z,11.80
2022-10-23T03:19:35.899Z,11.80
2022-10-23T03:22:02.421Z,11.80
2022-10-23T03:24:28.937Z,11.80
2022-10-23T03:26:55.626Z,11.80
2022-10-23T03:29:22.367Z,11.80
2022-10-23T03:31:49.081Z,11.80
2022-10-23T03:34:15.653Z,11.80
2022-10-23T03:36:42.137Z,11.80
2022-10-23T03:39:09.503Z,11.80
2022-10-23T03:41:35.991Z,11.80
2022-10-23T03:44:02.697Z,11.80
2022-10-23T03:46:29.471Z,11.80
2022-10-23T03:48:58.147Z,11.80
2022-10-23T03:51:24.660Z,11.80
2022-10-23T03:53:51.161Z,11.80
2022-10-23T03:56:17.695Z,11.80
2022-10-23T03:58:44.202Z,11.90
2022-10-23T04:01:10.735Z,11.80
2022-10-23T04:03:37.306Z,11.80
2022-10-23T04:06:03.856Z,11.90
2022-10-23T04:08:30.338Z,11.90
2022-10-23T04:10:57.292Z,11.90
2022-10-23T04:13:23.790Z,11.90
2022-10-23T04:15:51.159Z,12.00
2022-10-23T04:18:17.943Z,12.00
2022-10-23T04:20:46.824Z,12.00
2022-10-23T04:23:13.308Z,12.00
2022-10-23T04:25:39.841Z,12.00
2022-10-23T04:28:06.353Z,12.00
2022-10-23T04:30:32.852Z,12.00
2022-10-23T04:32:59.334Z,12.10
2022-10-23T04:35:25.871Z,12.10
2022-10-23T04:37:52.380Z,12.10
2022-10-23T04:40:18.909Z,12.20
2022-10-23T04:42:45.609Z,12.20
2022-10-23T04:45:12.254Z,12.20
2022-10-23T04:47:38.795Z,12.20
2022-10-23T04:50:05.560Z,12.30
2022-10-23T04:52:32.115Z,12.30
2022-10-23T04:54:58.606Z,12.30
2022-10-23T04:57:25.112Z,12.30
2022-10-23T04:59:56.847Z,12.40
2022-10-23T05:02:24.315Z,12.40
2022-10-23T05:04:50.888Z,12.50
2022-10-23T05:07:17.707Z,12.50
2022-10-23T05:09:44.452Z,12.50
2022-10-23T05:12:11.136Z,12.50
2022-10-23T05:14:37.808Z,12.50
2022-10-23T05:17:08.686Z,12.60
2022-10-23T05:19:38.763Z,12.60
2022-10-23T05:22:05.799Z,12.70
2022-10-23T05:24:32.559Z,12.70
2022-10-23T05:26:59.124Z,12.70
2022-10-23T05:29:25.825Z,12.70
2022-10-23T05:31:54.564Z,12.80
2022-10-23T05:34:23.395Z,12.90
2022-10-23T05:36:50.211Z,13.00
2022-10-23T05:39:16.926Z,13.10
2022-10-23T05:41:43.499Z,13.10
2022-10-23T05:44:10.059Z,13.10
2022-10-23T05:46:43.058Z,13.20
2022-10-23T05:49:09.697Z,13.30
2022-10-23T05:51:36.858Z,13.30
2022-10-23T05:54:06.287Z,13.30
2022-10-23T05:56:34.324Z,13.40
2022-10-23T05:59:01.151Z,13.40
2022-10-23T06:01:27.996Z,13.40
2022-10-23T06:03:56.245Z,13.40
2022-10-23T06:06:22.845Z,13.40
2022-10-23T06:08:49.389Z,13.40
2022-10-23T06:11:15.934Z,13.40
2022-10-23T06:13:43.028Z,13.40
2022-10-23T06:16:10.349Z,13.40
2022-10-23T06:18:37.106Z,13.50
2022-10-23T06:21:03.930Z,13.50
2022-10-23T06:23:32.044Z,13.50
2022-10-23T06:25:58.759Z,13.40
2022-10-23T06:28:25.316Z,13.40
2022-10-23T06:30:51.919Z,13.40
2022-10-23T06:33:18.610Z,13.40
2022-10-23T06:35:45.375Z,13.40
2022-10-23T06:38:11.900Z,13.40
2022-10-23T06:40:38.423Z,13.40
2022-10-23T06:43:05.890Z,13.40
2022-10-23T06:45:34.041Z,13.40
2022-10-23T06:48:03.927Z,13.50
2022-10-23T06:50:33.181Z,13.50
2022-10-23T06:52:59.704Z,13.50
2022-10-23T06:55:26.456Z,13.50
2022-10-23T06:57:53.585Z,13.60
2022-10-23T07:00:21.475Z,13.50
2022-10-23T07:02:54.674Z,13.50
2022-10-23T07:05:21.385Z,13.60
2022-10-23T07:07:48.071Z,13.60
2022-10-23T07:10:15.201Z,13.60
2022-10-23T07:12:42.052Z,13.60
2022-10-23T07:15:09.041Z,13.60
2022-10-23T07:17:38.711Z,13.60
2022-10-23T07:20:05.558Z,13.70
2022-10-23T07:22:32.294Z,13.70
2022-10-23T07:24:58.786Z,13.80
2022-10-23T07:27:25.563Z,13.80
2022-10-23T07:29:52.804Z,13.80
2022-10-23T07:32:19.675Z,13.90
2022-10-23T07:34:46.289Z,13.90
2022-10-23T07:37:12.814Z,13.90
2022-10-23T07:39:39.327Z,14.00
2022-10-23T07:42:06.184Z,14.00
2022-10-23T07:44:32.865Z,14.00
2022-10-23T07:46:59.583Z,14.10
2022-10-23T07:49:26.254Z,14.20
2022-10-23T07:51:58.781Z,14.20
2022-10-23T07:54:28.092Z,14.30
2022-10-23T07:56:54.632Z,14.30
2022-10-23T07:59:21.319Z,14.40
2022-10-23T08:01:51.437Z,14.40
2022-10-23T08:04:20.418Z,14.40
2022-10-23T08:06:46.934Z,14.50
2022-10-23T08:09:13.652Z,14.60
2022-10-23T08:11:40.189Z,14.60
2022-10-23T08:14:06.854Z,14.60
2022-10-23T08:16:34.409Z,14.70
2022-10-23T08:19:03.878Z,14.70
2022-10-23T08:21:30.885Z,14.70
2022-10-23T08:23:58.368Z,14.80
2022-10-23T08:26:25.463Z,14.80
2022-10-23T08:28:52.441Z,14.90
2022-10-23T08:31:23.164Z,14.90
2022-10-23T08:36:17.816Z,14.90
2022-10-23T08:38:44.665Z,15.00
2022-10-23T08:41:29.677Z,15.00
2022-10-23T08:44:13.451Z,15.10
2022-10-23T08:46:42.461Z,15.10
2022-10-23T08:49:21.290Z,15.20
2022-10-23T08:51:49.975Z,15.30
2022-10-23T08:54:19.167Z,15.30
2022-10-23T08:56:53.988Z,15.30
2022-10-23T08:59:33.166Z,15.30
2022-10-23T09:02:08.714Z,15.40
2022-10-23T09:04:35.584Z,15.50
2022-10-23T09:07:21.082Z,15.50
2022-10-23T09:09:47.731Z,15.60
2022-10-23T09:12:16.819Z,15.60
2022-10-23T09:14:52.491Z,15.70
2022-10-23T09:17:25.062Z,15.70
2022-10-23T09:20:00.822Z,15.80
2022-10-23T09:22:28.101Z,15.80
2022-10-23T09:24:54.618Z,15.80
2022-10-23T09:27:21.619Z,15.90
2022-10-23T09:29:49.557Z,15.90
2022-10-23T09:32:16.120Z,15.90
2022-10-23T09:34:53.295Z,15.90
2022-10-23T09:37:23.018Z,15.90
2022-10-23T09:39:49.814Z,15.90
2022-10-23T09:42:23.516Z,15.90
2022-10-23T09:44:51.312Z,15.90
2022-10-23T09:47:22.625Z,15.90
2022-10-23T09:49:56.490Z,15.90
2022-10-23T09:52:28.602Z,15.90
2022-10-23T09:55:02.159Z,15.90
2022-10-23T09:57:35.864Z,16.00
2022-10-23T10:00:06.219Z,16.00
2022-10-23T10:02:35.259Z,16.00
2022-10-23T10:05:21.000Z,16.00
2022-10-23T10:07:57.731Z,16.00
2022-10-23T10:10:25.017Z,16.00
2022-10-23T10:12:57.689Z,16.10
2022-10-23T10:15:28.785Z,16.20
2022-10-23T10:18:03.467Z,16.20
2022-10-23T10:20:38.887Z,16.20
2022-10-23T10:23:17.607Z,16.20
2022-10-23T10:25:56.294Z,16.30
2022-10-23T10:28:41.674Z,16.30
2022-10-23T10:31:08.171Z,16.30
2022-10-23T10:33:53.243Z,16.30
2022-10-23T10:36:29.539Z,16.40
2022-10-23T10:39:03.898Z,16.40
2022-10-23T10:41:49.226Z,16.40
2022-10-23T10:44:23.810Z,16.40
2022-10-23T10:46:56.139Z,16.50
2022-10-23T10:49:22.789Z,16.50
2022-10-23T10:51:57.416Z,16.60
2022-10-23T10:54:53.468Z,16.60
2022-10-23T10:57:33.887Z,16.70
2022-10-23T11:00:06.631Z,16.70
2022-10-23T11:02:37.868Z,16.70
2022-10-23T11:05:11.206Z,16.80
2022-10-23T11:07:41.327Z,16.80
2022-10-23T11:10:15.523Z,16.90
2022-10-23T11:12:43.040Z,17.00
2022-10-23T11:15:22.557Z,17.00
2022-10-23T11:17:52.882Z,17.00
2022-10-23T11:20:28.644Z,17.00
2022-10-23T11:23:06.124Z,17.10
2022-10-23T11:25:47.370Z,17.10
2022-10-23T11:28:25.722Z,17.20
2022-10-23T11:31:02.532Z,17.20
2022-10-23T11:33:34.829Z,17.30
2022-10-23T11:36:17.117Z,17.30
2022-10-23T11:38:45.440Z,17.50
2022-10-23T11:41:19.977Z,17.60
2022-10-23T11:43:53.620Z,17.70
2022-10-23T11:46:23.410Z,17.80
2022-10-23T11:48:50.373Z,17.80
2022-10-23T11:51:27.879Z,17.90
2022-10-23T11:54:05.215Z,17.90
2022-10-23T11:56:34.050Z,17.90
2022-10-23T11:59:17.960Z,18.00
2022-10-23T12:01:45.580Z,18.00
2022-10-23T12:04:12.531Z,18.00
2022-10-23T12:06:41.624Z,18.10
2022-10-23T12:09:21.938Z,18.20
2022-10-23T12:11:51.432Z,18.30
2022-10-23T12:14:28.263Z,18.30
2022-10-23T12:16:55.347Z,18.40
2022-10-23T12:19:23.216Z,18.40
2022-10-23T12:21:55.032Z,18.40
2022-10-23T12:24:39.826Z,18.40
2022-10-23T12:27:13.439Z,18.40
2022-10-23T12:29:51.812Z,18.40
2022-10-23T12:32:37.108Z,18.40
2022-10-23T12:35:20.625Z,18.50
2022-10-23T12:37:49.478Z,18.50
2022-10-23T12:40:16.254Z,18.50
2022-10-23T12:42:49.987Z,18.50
2022-10-23T12:45:18.690Z,18.60
2022-10-23T12:47:45.810Z,18.60
2022-10-23T12:50:19.974Z,18.60
2022-10-23T12:53:03.846Z,18.70
2022-10-23T12:55:35.177Z,18.70
2022-10-23T12:58:02.881Z,18.80
2022-10-23T13:00:29.405Z,18.80
2022-10-23T13:02:59.954Z,18.80
2022-10-23T13:05:27.051Z,18.80
2022-10-23T13:07:53.890Z,18.90
2022-10-23T13:10:21.427Z,18.90
2022-10-23T13:13:01.316Z,19.00
2022-10-23T13:15:36.326Z,19.00
2022-10-23T13:18:04.055Z,19.00
2022-10-23T13:20:32.326Z,19.00
2022-10-23T13:23:09.529Z,19.00
2022-10-23T13:25:37.514Z,19.10
2022-10-23T13:28:12.826Z,19.00
2022-10-23T13:30:42.036Z,19.10
2022-10-23T13:33:35.133Z,19.10
2022-10-23T13:36:07.148Z,19.10
2022-10-23T13:38:35.313Z,19.20
2022-10-23T13:41:03.095Z,19.30
2022-10-23T13:43:30.908Z,19.50
2022-10-23T13:45:58.288Z,19.60
2022-10-23T13:48:25.218Z,19.70
2022-10-23T13:50:52.139Z,19.70
2022-10-23T13:53:18.850Z,19.70
2022-10-23T13:55:47.434Z,19.70
2022-10-23T13:58:13.933Z,19.70
2022-10-23T14:00:40.621Z,19.60
2022-10-23T14:03:07.114Z,19.50
2022-10-23T14:05:33.826Z,19.50
2022-10-23T14:08:00.339Z,19.60
2022-10-23T14:10:27.858Z,19.50
2022-10-23T14:12:54.959Z,19.50
2022-10-23T14:15:21.978Z,19.50
2022-10-23T14:17:48.534Z,19.50
2022-10-23T14:20:17.269Z,19.50
2022-10-23T14:22:45.389Z,19.50
2022-10-23T14:25:14.803Z,19.40
2022-10-23T14:27:41.282Z,19.40
2022-10-23T14:30:08.225Z,19.60
2022-10-23T14:32:34.703Z,19.70
2022-10-23T14:35:03.735Z,19.80
2022-10-23T14:37:31.087Z,19.80
2022-10-23T14:39:59.005Z,19.70
2022-10-23T14:42:27.623Z,19.60
2022-10-23T14:44:57.195Z,19.60
2022-10-23T14:47:23.872Z,19.50
2022-10-23T14:49:52.197Z,19.50
2022-10-23T14:52:19.200Z,19.50
2022-10-23T14:54:45.712Z,19.40
2022-10-23T14:57:16.011Z,19.40
2022-10-23T14:59:43.203Z,19.30
2022-10-23T15:02:10.819Z,19.20
2022-10-23T15:04:37.747Z,19.20
2022-10-23T15:07:04.395Z,19.20
2022-10-23T15:09:34.551Z,19.10
2022-10-23T15:12:01.139Z,19.20
2022-10-23T15:14:27.625Z,19.00
2022-10-23T15:16:54.103Z,19.10
2022-10-23T15:19:20.593Z,19.00
2022-10-23T15:21:47.400Z,18.90
2022-10-23T15:24:14.459Z,18.90
2022-10-23T15:26:43.091Z,18.90
2022-10-23T15:29:11.074Z,18.80
2022-10-23T15:31:37.559Z,18.80
2022-10-23T15:34:05.068Z,18.70
2022-10-23T15:36:31.685Z,18.60
2022-10-23T15:38:58.163Z,18.60
2022-10-23T15:41:28.584Z,18.60
2022-10-23T15:43:55.162Z,18.60
2022-10-23T15:46:24.343Z,18.50
2022-10-23T15:48:50.832Z,18.60
2022-10-23T15:51:17.335Z,18.50
2022-10-23T15:53:43.834Z,18.40
2022-10-23T15:56:10.319Z,18.50
2022-10-23T15:58:36.811Z,18.50
2022-10-23T16:01:06.986Z,18.50
2022-10-23T16:03:34.311Z,18.50
2022-10-23T16:06:05.007Z,18.50
2022-10-23T16:08:31.531Z,18.40
2022-10-23T16:11:00.749Z,18.40
2022-10-23T16:13:27.572Z,18.40
2022-10-23T16:15:54.317Z,18.40
2022-10-23T16:18:21.950Z,18.40
2022-10-23T16:20:50.784Z,18.30
2022-10-23T16:23:17.514Z,18.30
2022-10-23T16:25:46.415Z,18.40
2022-10-23T16:28:13.120Z,18.30
2022-10-23T16:30:46.408Z,18.40
2022-10-23T16:33:13.129Z,18.30
2022-10-23T16:35:39.648Z,18.30
2022-10-23T16:38:06.359Z,18.30
2022-10-23T16:40:32.875Z,18.30
2022-10-23T16:42:59.444Z,18.20
2022-10-23T16:45:26.251Z,18.20
2022-10-23T16:47:52.783Z,18.20
2022-10-23T16:50:19.410Z,18.20
2022-10-23T16:52:46.238Z,18.20
2022-10-23T16:55:13.858Z,18.20
2022-10-23T16:57:40.608Z,18.10
2022-10-23T17:00:07.358Z,18.10
2022-10-23T17:02:35.395Z,18.10
2022-10-23T17:05:02.126Z,18.00
2022-10-23T17:07:28.780Z,18.00
2022-10-23T17:09:55.431Z,18.00
2022-10-23T17:12:22.111Z,18.00
2022-10-23T17:14:48.797Z,18.00
2022-10-23T17:17:15.384Z,17.90
2022-10-23T17:19:46.544Z,17.90
2022-10-23T17:22:13.903Z,17.90
2022-10-23T17:24:40.951Z,17.90
2022-10-23T17:27:10.594Z,17.90
2022-10-23T17:29:37.132Z,17.90
2022-10-23T17:32:03.693Z,17.90
2022-10-23T17:34:30.189Z,17.90
2022-10-23T17:36:57.041Z,17.90
2022-10-23T17:39:26.337Z,17.90
2022-10-23T17:41:53.104Z,17.80
2022-10-23T17:44:19.929Z,17.80
2022-10-23T17:46:49.164Z,17.80
2022-10-23T17:49:15.647Z,17.80
2022-10-23T17:51:42.177Z,17.80
2022-10-23T17:54:10.471Z,17.80
2022-10-23T17:56:38.431Z,17.70
2022-10-23T17:59:11.769Z,17.80
2022-10-23T18:01:38.963Z,17.80
2022-10-23T18:04:06.381Z,17.80
2022-10-23T18:06:40.399Z,17.80
2022-10-23T18:09:07.207Z,17.80
2022-10-23T18:11:35.695Z,17.90
2022-10-23T18:14:02.923Z,17.80
2022-10-23T18:16:29.463Z,17.90
2022-10-23T18:18:56.276Z,17.90
2022-10-23T18:21:23.658Z,17.90
2022-10-23T18:23:50.735Z,17.90
2022-10-23T18:26:18.505Z,18.00
2022-10-23T18:28:45.587Z,18.00
2022-10-23T18:31:12.932Z,18.00
2022-10-23T18:33:39.866Z,18.00
2022-10-23T18:36:16.653Z,18.00
2022-10-23T18:38:43.262Z,18.10
2022-10-23T18:41:10.039Z,18.00
2022-10-23T18:43:43.807Z,18.10
2022-10-23T18:46:14.506Z,18.10
2022-10-23T18:48:41.256Z,18.00
2022-10-23T18:51:15.915Z,18.10
2022-10-23T18:53:43.176Z,18.10
2022-10-23T18:56:09.878Z,18.10
2022-10-23T18:58:36.555Z,18.10
2022-10-23T19:01:03.352Z,18.20
2022-10-23T19:03:30.093Z,18.20
2022-10-23T19:05:59.362Z,18.20
2022-10-23T19:08:25.951Z,18.20
2022-10-23T19:10:52.695Z,18.20
2022-10-23T19:13:21.867Z,18.20
2022-10-23T19:15:48.421Z,18.30
2022-10-23T19:18:14.915Z,18.20
2022-10-23T19:20:41.704Z,18.20
2022-10-23T19:23:11.678Z,18.10
2022-10-23T19:25:40.634Z,18.10
2022-10-23T19:28:07.318Z,18.00
2022-10-23T19:30:34.488Z,18.00
2022-10-23T19:33:01.088Z,18.00
2022-10-23T19:35:28.194Z,17.90
2022-10-23T19:37:54.711Z,17.90
2022-10-23T19:40:24.223Z,17.80
2022-10-23T19:42:51.010Z,17.80
2022-10-23T19:45:17.732Z,17.70
2022-10-23T19:47:46.381Z,17.60
2022-10-23T19:50:15.762Z,17.60
2022-10-23T19:52:42.498Z,17.70
2022-10-23T19:55:09.176Z,17.60
2022-10-23T19:57:36.984Z,17.60
2022-10-23T20:00:05.332Z,17.40
2022-10-23T20:02:33.271Z,17.40
2022-10-23T20:04:59.903Z,17.40
2022-10-23T20:07:26.390Z,17.40
2022-10-23T20:09:55.674Z,17.30
2022-10-23T20:12:22.258Z,17.30
2022-10-23T20:14:48.775Z,17.30
2022-10-23T20:17:15.262Z,17.20
2022-10-23T20:19:42.036Z,17.20
2022-10-23T20:22:08.533Z,17.20
2022-10-23T20:24:35.050Z,17.10
2022-10-23T20:27:01.570Z,17.10
2022-10-23T20:29:28.115Z,17.10
2022-10-23T20:31:54.633Z,17.10
2022-10-23T20:34:21.165Z,17.00
2022-10-23T20:36:49.128Z,16.90
2022-10-23T20:39:17.261Z,16.80
2022-10-23T20:41:44.946Z,16.90
2022-10-23T20:44:12.381Z,16.80
2022-10-23T20:46:38.923Z,16.80
2022-10-23T20:49:07.710Z,16.70
2022-10-23T20:51:35.701Z,16.80
2022-10-23T20:54:02.606Z,16.80
2022-10-23T20:56:33.496Z,16.70
2022-10-23T20:59:01.245Z,16.60
2022-10-23T21:01:28.451Z,16.60
2022-10-23T21:03:57.002Z,16.60
2022-10-23T21:06:23.998Z,16.60
2022-10-23T21:08:54.265Z,16.70
2022-10-23T21:11:20.761Z,16.70
2022-10-23T21:13:47.333Z,16.60
2022-10-23T21:16:16.756Z,16.60
2022-10-23T21:18:47.078Z,16.60
2022-10-23T21:21:16.295Z,16.60
2022-10-23T21:23:42.904Z,16.50
2022-10-23T21:26:09.608Z,16.50
2022-10-23T21:28:36.342Z,16.50
2022-10-23T21:31:06.310Z,16.50
2022-10-23T21:33:33.349Z,16.50
2022-10-23T21:36:12.825Z,16.40
2022-10-23T21:38:39.875Z,16.40
2022-10-23T21:41:06.935Z,16.50
2022-10-23T21:43:33.466Z,16.40
2022-10-23T21:46:04.537Z,16.50
2022-10-23T21:48:31.404Z,16.50
2022-10-23T21:50:58.877Z,16.50
2022-10-23T21:53:25.595Z,16.40
2022-10-23T21:55:52.212Z,16.40
2022-10-23T21:58:18.690Z,16.40
2022-10-23T22:00:45.273Z,16.40
2022-10-23T22:03:11.951Z,16.40
2022-10-23T22:05:38.435Z,16.50
2022-10-23T22:08:05.062Z,16.40
2022-10-23T22:10:31.576Z,16.50
2022-10-23T22:12:58.061Z,16.50
2022-10-23T22:15:24.531Z,16.50
2022-10-23T22:17:51.016Z,16.50
2022-10-23T22:20:17.580Z,16.50
2022-10-23T22:22:44.071Z,16.50
2022-10-23T22:25:10.573Z,16.50
2022-10-23T22:27:39.823Z,16.50
2022-10-23T22:30:07.114Z,16.60
2022-10-23T22:32:34.683Z,16.40
2022-10-23T22:35:01.183Z,16.40
2022-10-23T22:37:27.775Z,16.50
2022-10-23T22:39:54.274Z,16.40
2022-10-23T22:42:20.761Z,16.50
2022-10-23T22:44:47.258Z,16.40
2022-10-23T22:47:13.812Z,16.50
2022-10-23T22:49:43.387Z,16.40
2022-10-23T22:52:09.860Z,16.40
2022-10-23T22:54:36.715Z,16.40
2022-10-23T22:57:03.276Z,16.40
2022-10-23T22:59:29.831Z,16.50
2022-10-23T23:01:56.523Z,16.50
2022-10-23T23:04:37.171Z,16.40
2022-10-23T23:07:05.767Z,16.50
2022-10-23T23:09:32.510Z,16.50
2022-10-23T23:11:59.040Z,16.50
2022-10-23T23:14:25.534Z,16.50
2022-10-23T23:16:52.737Z,16.50
2022-10-23T23:19:19.249Z,16.50
2022-10-23T23:21:46.117Z,16.50
2022-10-23T23:24:12.675Z,16.40
2022-10-23T23:26:39.407Z,16.40
2022-10-23T23:29:05.954Z,16.30
2022-10-23T23:31:32.645Z,16.20
2022-10-23T23:33:59.208Z,16.20
2022-10-23T23:36:26.759Z,16.30
2022-10-23T23:38:53.420Z,16.20
2022-10-23T23:41:21.249Z,16.30
2022-10-23T23:43:47.865Z,16.30
2022-10-23T23:46:14.796Z,16.30
2022-10-23T23:48:42.587Z,16.30
2022-10-23T23:51:09.441Z,16.30
2022-10-23T23:53:36.134Z,16.40
2022-10-23T23:56:02.782Z,16.50
2022-10-23T23:58:29.354Z,16.50
